Latest Weather Observations for Parkes Airport

IDN60801

Issued at 9:02 pm EST Friday 22 May 2015 (issued every 30 minutes, with the page automatically refreshed every 10 minutes)

About weather observations | Map of weather stations | Latest weather observations for NSW | Other Formats
Station Details ID: 065068 Name: PARKES AIRPORT AWS Lat: -33.13 Lon: 148.24 Height: 323.3 m
Data from the previous 72 hours. | See also: Recent months at Parkes Airport
Date/Time
EST
Temp
°C
App
Temp
°C
Dew
Point
Rel
Hum
%
Delta-T
°C
Wind Press
QNH
hPa
Press
MSL
hPa
Rain
since 9 am
mm
Dir
 
Spd
km/h
Gust
km/h
Spd
kts
Gust
kts
22/09:00pm 9.2 5.6 5.2 76 1.8 SE 13 19 7 10 1026.9 1027.0 0.0
22/08:30pm 9.0 5.4 5.0 76 1.8 SE 13 15 7 8 1026.6 1026.7 0.0
22/08:00pm 9.5 6.0 5.5 76 1.8 SE 13 13 7 7 1026.5 1026.6 0.0
22/07:30pm 10.4 7.6 5.0 69 2.5 S 9 13 5 7 1026.2 1026.2 0.0
22/07:00pm 10.4 7.2 5.0 69 2.5 SSE 11 13 6 7 1025.8 1025.8 0.0
22/06:30pm 12.7 7.9 4.9 59 3.7 SSE 19 26 10 14 1025.3 1025.3 0.0
22/06:00pm 11.9 7.1 4.9 62 3.2 SE 19 26 10 14 1024.9 1024.9 0.0
22/05:30pm 13.2 8.5 5.1 58 3.8 SSE 19 26 10 14 1024.6 1024.6 0.0
22/05:00pm 14.1 9.2 5.2 55 4.2 SSE 20 28 11 15 1024.3 1024.3 0.0
22/04:30pm 15.1 10.3 5.6 53 4.6 SSE 20 30 11 16 1023.7 1023.8 0.0
22/04:00pm 15.6 10.3 6.6 55 4.4 S 24 33 13 18 1023.5 1023.5 0.0
22/03:30pm 15.6 10.3 6.9 56 4.3 SSE 24 35 13 19 1023.2 1023.2 0.0
22/03:00pm 14.9 9.5 6.5 57 4.1 S 24 32 13 17 1023.2 1023.2 0.0
22/02:30pm 15.0 9.1 7.3 60 3.9 S 28 37 15 20 1022.9 1022.9 0.0
22/02:00pm 16.4 11.1 8.4 59 4.1 S 26 35 14 19 1022.7 1022.7 0.0
22/01:30pm 15.3 9.5 8.1 62 3.7 S 28 37 15 20 1022.4 1022.4 0.0
22/01:00pm 16.3 10.9 8.0 58 4.2 SSE 26 43 14 23 1022.3 1022.3 0.0
22/12:30pm 15.0 9.3 8.3 64 3.4 S 28 39 15 21 1022.3 1022.3 0.0
22/12:00pm 14.9 9.4 9.1 68 3.0 S 28 41 15 22 1022.5 1022.5 0.0
22/11:30am 15.7 10.9 8.9 64 3.5 S 24 33 13 18 1022.4 1022.4 0.0
22/11:00am 15.3 10.5 8.8 65 3.4 S 24 33 13 18 1022.5 1022.5 0.0
22/10:30am 14.9 9.3 8.6 66 3.2 S 28 41 15 22 1022.4 1022.4 0.0
22/10:00am 13.4 8.9 8.5 72 2.5 SSW 22 30 12 16 1022.1 1022.1 0.0
22/09:30am 12.4 7.8 8.1 75 2.2 SSW 22 28 12 15 1022.1 1022.1 0.0
22/09:00am 11.2 7.3 8.8 85 1.2 SW 19 22 10 12 1021.9 1021.9 0.0
22/08:30am 9.8 6.0 7.6 86 1.1 SSW 17 20 9 11 1021.7 1021.7 0.0
22/08:00am 9.4 6.4 7.7 89 0.8 SSW 13 17 7 9 1021.4 1021.4 0.0
22/07:30am 8.2 5.5 7.3 94 0.4 SW 11 15 6 8 1021.0 1020.9 0.0
22/07:00am 7.9 5.1 7.0 94 0.4 SSW 11 15 6 8 1020.7 1020.6 0.0
22/06:30am 7.7 4.5 6.8 94 0.4 SW 13 17 7 9 1020.2 1020.2 0.0
22/06:00am 8.0 3.7 7.1 94 0.4 SW 19 20 10 11 1019.6 1019.6 0.0
22/05:30am 8.5 5.0 7.3 92 0.6 SW 15 19 8 10 1019.4 1019.4 0.0
22/05:00am 9.1 5.7 7.7 91 0.7 SSW 15 19 8 10 1019.1 1019.1 0.0
22/04:30am 9.2 5.8 7.6 90 0.8 SSW 15 19 8 10 1019.0 1019.0 0.0
22/04:00am 9.3 5.9 7.6 89 0.8 SW 15 20 8 11 1018.9 1018.9 0.0
22/03:30am 9.4 6.4 7.8 90 0.8 SW 13 19 7 10 1018.8 1018.8 0.0
22/03:00am 9.1 6.1 7.7 91 0.7 WSW 13 19 7 10 1018.8 1018.8 0.0
22/02:30am 8.8 5.3 7.4 91 0.7 SSW 15 19 8 10 1018.8 1018.8 0.0
22/02:00am 8.7 5.2 7.3 91 0.7 SSW 15 19 8 10 1018.8 1018.8 0.0
22/01:30am 8.9 5.5 7.5 91 0.7 SW 15 17 8 9 1018.9 1018.9 0.0
22/01:00am 9.1 6.1 7.5 90 0.8 SSW 13 17 7 9 1019.0 1019.0 0.0
22/12:30am 9.5 5.7 7.6 88 0.9 SSW 17 20 9 11 1019.1 1019.1 0.0
22/12:00am 9.8 6.5 8.1 89 0.8 SW 15 17 8 9 1019.2 1019.2 0.0
 
Date/Time
EST
Temp
°C
App
Temp
°C
Dew
Point
Rel
Hum
%
Delta-T
°C
Wind Press
QNH
hPa
Press
MSL
hPa
Rain
since 9 am
mm
Dir
 
Spd
km/h
Gust
km/h
Spd
kts
Gust
kts
21/11:30pm 9.6 7.4 7.9 89 0.8 SW 9 13 5 7 1019.3 1019.3 0.0
21/11:00pm 9.8 7.2 7.9 88 0.9 SW 11 13 6 7 1019.3 1019.3 0.0
21/10:30pm 10.1 7.5 7.7 85 1.2 SSW 11 15 6 8 1019.2 1019.2 0.0
21/10:00pm 10.1 7.9 7.9 86 1.1 SSW 9 11 5 6 1019.2 1019.2 0.0
21/09:30pm 10.3 8.1 7.7 84 1.3 SW 9 11 5 6 1019.2 1019.2 0.0
21/09:00pm 10.7 8.9 7.9 83 1.4 SSW 7 11 4 6 1019.1 1019.1 0.0
21/08:30pm 10.9 8.7 7.8 81 1.5 SSW 9 11 5 6 1019.1 1019.1 0.0
21/08:00pm 11.3 8.6 7.2 76 2.0 S 11 15 6 8 1018.9 1018.9 0.0
21/07:30pm 12.0 8.5 7.3 73 2.3 S 15 22 8 12 1019.0 1019.0 0.0
21/07:00pm 12.7 8.5 7.4 70 2.6 SSE 19 24 10 13 1018.9 1018.9 0.0
21/06:30pm 12.6 9.0 8.5 76 2.1 S 17 20 9 11 1018.9 1018.9 0.0
21/06:00pm 12.9 10.1 8.4 74 2.3 S 13 17 7 9 1018.9 1018.9 0.0
21/05:30pm 13.3 9.8 8.6 73 2.4 S 17 20 9 11 1018.5 1018.5 0.0
21/05:00pm 13.6 9.5 8.0 69 2.8 S 19 24 10 13 1018.2 1018.1 0.0
21/04:30pm 14.3 10.2 7.8 65 3.3 S 19 22 10 12 1017.8 1017.7 0.0
21/04:00pm 15.0 11.1 7.1 59 3.9 SSW 17 20 9 11 1017.8 1017.7 0.0
21/03:30pm 15.9 11.9 6.6 54 4.6 SW 17 19 9 10 1017.6 1017.5 0.0
21/03:00pm 16.8 13.3 7.4 54 4.8 SSW 15 20 8 11 1017.8 1017.7 0.0
21/02:30pm 16.8 13.5 8.2 57 4.4 SSW 15 20 8 11 1018.0 1017.9 0.0
21/02:00pm 16.7 13.7 7.6 55 4.6 SSW 13 17 7 9 1018.2 1018.1 0.0
21/01:30pm 16.7 12.9 9.1 61 4.0 SW 19 24 10 13 1018.5 1018.5 0.0
21/01:00pm 17.0 14.1 8.2 56 4.5 WSW 13 17 7 9 1018.8 1018.8 0.0
21/12:30pm 16.1 13.7 8.8 62 3.8 SW 11 15 6 8 1019.2 1019.2 0.0
21/12:00pm 15.7 12.9 10.0 69 3.0 SW 15 22 8 12 1019.5 1019.5 0.0
21/11:30am 15.7 13.8 10.5 71 2.8 WSW 11 17 6 9 1019.8 1019.8 0.0
21/11:00am 14.6 12.8 11.0 79 1.9 WSW 11 15 6 8 1020.0 1020.0 0.0
21/10:30am 13.4 12.7 12.1 92 0.7 WSW 7 11 4 6 1020.3 1020.3 0.0
21/10:00am 12.4 12.3 12.2 99 0.1 WSW 4 7 2 4 1020.4 1020.4 0.0
21/09:30am 11.0 11.3 10.8 99 0.1 CALM 0 0 0 0 1020.6 1020.5 0.0
21/09:00am 10.1 9.7 9.9 99 0.1 S 2 6 1 3 1020.6 1020.5 0.0
21/08:30am 9.0 8.8 8.9 99 0.0 CALM 0 0 0 0 1020.6 1020.5 0.0
21/08:00am 8.1 7.6 8.0 99 0.0 CALM 0 0 0 0 1020.3 1020.3 0.0
21/07:30am 7.1 4.7 6.8 98 0.1 S 9 11 5 6 1019.9 1019.9 0.0
21/07:00am 6.4 3.8 6.0 97 0.2 S 9 9 5 5 1019.7 1019.7 0.0
21/06:30am 6.7 5.1 6.3 97 0.2 S 4 9 2 5 1019.5 1019.5 0.0
21/06:00am 7.4 5.4 7.0 97 0.2 S 7 7 4 4 1019.2 1019.2 0.0
21/05:30am 7.7 5.4 7.3 97 0.2 S 9 11 5 6 1019.1 1019.1 0.0
21/05:00am 8.1 6.2 7.7 97 0.2 S 7 9 4 5 1019.0 1019.0 0.0
21/04:30am 8.1 7.5 7.3 95 0.4 CALM 0 0 0 0 1018.9 1018.9 0.0
21/04:00am 9.3 9.0 8.7 96 0.3 CALM 0 0 0 0 1018.8 1018.8 0.0
21/03:30am 9.0 8.2 8.2 95 0.4 S 2 7 1 4 1018.7 1018.7 0.0
21/03:00am 9.7 9.4 8.8 94 0.4 CALM 0 0 0 0 1018.6 1018.6 0.0
21/02:30am 10.5 10.4 9.4 93 0.6 CALM 0 6 0 3 1018.7 1018.7 0.0
21/02:00am 10.9 9.5 9.7 92 0.6 SSW 7 7 4 4 1018.7 1018.7 0.0
21/01:30am 11.6 9.9 10.0 90 0.8 S 9 9 5 5 1019.0 1019.0 0.0
21/01:00am 11.8 9.7 9.9 88 1.0 S 11 13 6 7 1018.9 1018.9 0.0
21/12:30am 12.2 10.3 10.4 89 0.9 SSW 11 13 6 7 1019.0 1019.0 0.0
21/12:00am 12.5 11.0 10.7 89 0.9 S 9 13 5 7 1019.1 1019.1 0.0
 
Date/Time
EST
Temp
°C
App
Temp
°C
Dew
Point
Rel
Hum
%
Delta-T
°C
Wind Press
QNH
hPa
Press
MSL
hPa
Rain
since 9 am
mm
Dir
 
Spd
km/h
Gust
km/h
Spd
kts
Gust
kts
20/11:30pm 13.0 11.7 11.4 90 0.9 SSW 9 9 5 5 1019.1 1019.1 0.0
20/11:00pm 13.4 11.5 11.8 90 0.9 SSW 13 15 7 8 1019.1 1019.1 0.0
20/10:30pm 13.5 12.2 12.4 93 0.6 SW 11 13 6 7 1019.4 1019.4 0.0
20/10:00pm 13.3 14.0 12.2 93 0.6 CALM 0 0 0 0 1019.3 1019.3 0.0
20/09:30pm 13.3 12.6 11.9 91 0.8 WSW 7 9 4 5 1019.2 1019.2 0.0
20/09:00pm 13.8 12.4 12.2 90 0.9 WSW 11 13 6 7 1018.9 1018.9 0.0
20/08:30pm 14.4 12.8 12.8 90 0.9 WSW 13 13 7 7 1018.7 1018.7 0.0
20/08:00pm 15.0 13.5 13.0 88 1.1 WSW 13 15 7 8 1018.2 1018.1 0.0
20/07:30pm 15.5 14.1 13.5 88 1.1 WSW 13 17 7 9 1017.9 1017.8 0.0
20/07:00pm 16.0 14.4 13.8 87 1.3 WSW 15 19 8 10 1017.4 1017.3 0.0
20/06:30pm 16.4 15.3 14.2 87 1.3 WSW 13 17 7 9 1017.3 1017.2 0.0
20/06:00pm 16.1 15.7 14.1 88 1.2 WNW 9 13 5 7 1016.6 1016.6 0.0
20/05:30pm 16.4 15.6 14.1 86 1.3 NW 11 13 6 7 1016.4 1016.4 0.0
20/05:00pm 16.9 15.9 14.5 86 1.4 NNW 13 15 7 8 1016.1 1016.1 0.0
20/04:30pm 17.5 17.0 14.8 84 1.6 NNW 11 13 6 7 1016.0 1016.0 0.0
20/04:00pm 17.9 17.2 14.4 80 2.0 NNW 11 15 6 8 1015.7 1015.6 0.0
20/03:30pm 18.2 17.6 14.5 79 2.2 NNW 11 15 6 8 1015.8 1015.8 0.0
20/03:00pm 18.6 16.8 14.5 77 2.4 NW 17 22 9 12 1016.2 1016.2 0.0
20/02:30pm 18.9 16.5 14.4 75 2.6 NW 20 26 11 14 1015.9 1015.9 0.0
20/02:00pm 19.1 17.0 14.6 75 2.7 NW 19 26 10 14 1015.7 1015.6 0.0
20/01:30pm 19.2 17.3 15.1 77 2.4 NNW 19 26 10 14 1015.6 1015.5 0.0
20/01:00pm 19.2 17.1 15.1 77 2.4 NNW 20 26 11 14 1015.6 1015.5 0.0
20/12:30pm 19.2 17.1 15.3 78 2.3 NNW 20 28 11 15 1016.3 1016.3 0.0
20/12:00pm 18.8 16.1 14.5 76 2.5 NNW 22 32 12 17 1016.5 1016.5 0.0
20/11:30am 19.1 16.8 14.6 75 2.7 NNW 20 32 11 17 1016.7 1016.7 0.0
20/11:00am 19.1 16.3 14.4 74 2.8 NNW 22 32 12 17 1017.0 1017.0 0.0
20/10:30am 18.5 16.0 14.0 75 2.6 NNW 20 28 11 15 1016.8 1016.8 0.0
20/10:00am 18.3 16.7 13.8 75 2.6 N 15 22 8 12 1016.9 1016.9 0.0
20/09:30am 17.5 15.9 14.0 80 2.0 NNE 15 19 8 10 1016.8 1016.8 0.0
20/09:00am 16.4 14.6 13.3 82 1.8 NNE 15 20 8 11 1016.7 1016.7 15.2
20/08:30am 15.4 14.0 13.4 88 1.1 NNE 13 17 7 9 1016.5 1016.5 15.2
20/08:00am 14.0 12.7 12.6 91 0.8 NNE 11 13 6 7 1016.3 1016.3 15.2
20/07:30am 13.3 11.5 12.2 93 0.6 NNE 13 15 7 8 1016.2 1016.2 15.2
20/07:00am 12.8 10.9 11.7 93 0.6 NNE 13 17 7 9 1015.9 1015.9 15.2
20/06:30am 13.0 11.6 12.1 94 0.5 NNE 11 13 6 7 1015.8 1015.8 15.2
20/06:00am 13.2 11.8 12.3 94 0.5 NE 11 17 6 9 1015.7 1015.6 15.2
20/05:30am 13.1 11.7 12.2 94 0.5 NNW 11 17 6 9 1016.0 1016.0 15.2
20/05:00am 13.3 12.3 12.2 93 0.6 NNE 9 11 5 6 1015.4 1015.3 15.2
20/04:30am 13.6 11.5 12.5 93 0.6 N 15 19 8 10 1015.4 1015.3 15.0
20/04:00am 13.3 10.9 12.7 96 0.3 NE 17 20 9 11 1015.5 1015.4 15.0
20/03:30am 12.7 10.9 12.1 96 0.3 ENE 13 15 7 8 1015.7 1015.6 15.0
20/03:00am 12.7 11.3 12.1 96 0.3 ENE 11 13 6 7 1016.0 1016.0 15.0
20/02:30am 12.5 10.6 11.9 96 0.3 NE 13 15 7 8 1016.0 1016.0 15.0
20/02:00am 12.5 11.0 11.9 96 0.3 ESE 11 13 6 7 1016.0 1016.0 14.8
20/01:30am 12.5 12.3 11.7 95 0.4 N 4 7 2 4 1016.6 1016.6 14.6
20/01:00am 12.6 11.7 11.5 93 0.6 SSW 7 9 4 5 1016.3 1016.3 14.6
20/12:30am 13.4 7.6 11.6 89 1.0 WSW 33 52 18 28 1017.0 1017.0 13.6
20/12:23am 12.6 9.5 11.5 93 0.6 N 19 46 10 25 1016.9 1016.9 13.2
20/12:00am 11.6 9.4 10.7 94 0.5 NE 13 15 7 8 1015.5 1015.4 13.2
 
Date/Time
EST
Temp
°C
App
Temp
°C
Dew
Point
Rel
Hum
%
Delta-T
°C
Wind Press
QNH
hPa
Press
MSL
hPa
Rain
since 9 am
mm
Dir
 
Spd
km/h
Gust
km/h
Spd
kts
Gust
kts
19/11:30pm 11.7 10.3 10.8 94 0.5 NE 9 11 5 6 1016.0 1016.0 13.2
19/11:00pm 11.4 9.8 10.3 93 0.6 NE 9 11 5 6 1015.9 1015.9 13.2
19/10:30pm 11.9 10.0 10.5 91 0.7 N 11 13 6 7 1016.1 1016.1 13.2
19/10:00pm 12.3 10.0 10.5 89 0.9 ENE 13 15 7 8 1015.8 1015.8 13.2
19/09:30pm 13.2 11.5 11.1 87 1.1 NE 11 15 6 8 1016.0 1016.0 13.2

Other Formats:

Comma delimited format used in spreadsheet applications
http://www.bom.gov.au/fwo/IDN60801/IDN60801.95717.axf

JavaScript Object Notation format (JSON) in row-major order
http://www.bom.gov.au/fwo/IDN60801/IDN60801.95717.json